Time,TemperatureF,DewpointF,PressureIn,WindDirection,WindDirectionDegrees,WindSpeedMPH,WindSpeedGustMPH,Humidity,HourlyPrecipIn,Conditions,Clouds,dailyrainin,SoftwareType,DateUTC
2013-01-28 00:01:00,32.9,32.9,29.95,East,90,0.0,0.0,100,0.00,,,0.00,Wunderground v.1.15,2013-01-28 05:01:00,
2013-01-28 00:06:00,33.1,33.1,29.95,East,92,0.0,0.0,100,0.00,,,0.00,Wunderground v.1.15,2013-01-28 05:06:00,
2013-01-28 00:09:00,33.1,33.1,29.95,East,95,0.0,0.0,100,0.00,,,0.00,Wunderground v.1.15,2013-01-28 05:09:00,
2013-01-28 00:12:00,33.1,33.1,29.95,East,89,0.0,0.0,100,0.00,,,0.00,Wunderground v.1.15,2013-01-28 05:12:00,
2013-01-28 00:17:00,33.2,33.2,29.95,East,88,0.0,0.0,100,0.00,,,0.01,Wunderground v.1.15,2013-01-28 05:17:00,
2013-01-28 00:24:00,33.2,33.2,29.95,East,93,1.0,5.0,100,0.08,,,0.02,Wunderground v.1.15,2013-01-28 05:24:00,
2013-01-28 00:29:00,33.4,33.4,29.95,East,97,3.0,5.0,100,0.08,,,0.02,Wunderground v.1.15,2013-01-28 05:29:00,
2013-01-28 00:34:00,33.4,33.4,29.93,East,85,4.0,4.0,100,0.07,,,0.03,Wunderground v.1.15,2013-01-28 05:34:00,
2013-01-28 00:39:00,33.4,33.4,29.93,East,80,4.0,8.0,100,0.13,,,0.04,Wunderground v.1.15,2013-01-28 05:39:00,
2013-01-28 00:45:00,33.4,33.4,29.93,East,80,4.0,5.0,100,0.11,,,0.05,Wunderground v.1.15,2013-01-28 05:45:00,
2013-01-28 00:50:00,33.5,33.5,29.93,ESE,102,3.0,3.0,100,0.13,,,0.06,Wunderground v.1.15,2013-01-28 05:50:00,
2013-01-28 00:56:00,33.7,33.7,29.93,East,83,3.0,3.0,100,0.07,,,0.07,Wunderground v.1.15,2013-01-28 05:56:00,
2013-01-28 01:01:00,34.0,34.0,29.92,East,100,4.0,4.0,100,0.07,,,0.07,Wunderground v.1.15,2013-01-28 06:01:00,
2013-01-28 01:06:00,34.3,34.3,29.92,East,90,5.0,10.0,100,0.07,,,0.08,Wunderground v.1.15,2013-01-28 06:06:00,
2013-01-28 01:12:00,34.3,34.3,29.92,East,89,4.0,8.0,100,0.07,,,0.08,Wunderground v.1.15,2013-01-28 06:12:00,
2013-01-28 01:17:00,34.4,34.4,29.92,ESE,106,4.0,8.0,100,0.05,,,0.09,Wunderground v.1.15,2013-01-28 06:17:00,
2013-01-28 01:22:00,34.6,34.6,29.92,East,99,3.0,4.0,100,0.05,,,0.09,Wunderground v.1.15,2013-01-28 06:22:00,
2013-01-28 01:28:00,34.7,34.7,29.92,East,89,3.0,5.0,100,0.05,,,0.10,Wunderground v.1.15,2013-01-28 06:28:00,
2013-01-28 01:34:00,34.9,34.9,29.91,ESE,102,3.0,5.0,100,0.05,,,0.10,Wunderground v.1.15,2013-01-28 06:34:00,
2013-01-28 01:39:00,35.2,35.2,29.91,East,89,4.0,11.0,100,0.05,,,0.10,Wunderground v.1.15,2013-01-28 06:39:00,
2013-01-28 01:44:00,35.0,35.0,29.91,East,86,3.0,6.0,100,0.00,,,0.10,Wunderground v.1.15,2013-01-28 06:44:00,
2013-01-28 01:50:00,34.9,34.9,29.91,East,99,2.0,6.0,100,0.00,,,0.11,Wunderground v.1.15,2013-01-28 06:50:00,
2013-01-28 01:55:00,35.0,35.0,29.91,East,93,2.0,6.0,100,0.00,,,0.11,Wunderground v.1.15,2013-01-28 06:55:00,
2013-01-28 02:01:00,35.2,35.2,29.90,East,99,2.0,2.0,100,0.00,,,0.11,Wunderground v.1.15,2013-01-28 07:01:00,
2013-01-28 02:06:00,35.3,35.3,29.90,ENE,73,2.0,14.0,100,0.00,,,0.12,Wunderground v.1.15,2013-01-28 07:06:00,
2013-01-28 02:12:00,35.5,35.5,29.90,East,93,2.0,3.0,100,0.00,,,0.12,Wunderground v.1.15,2013-01-28 07:12:00,
2013-01-28 02:18:00,35.6,35.6,29.89,East,83,2.0,3.0,100,0.00,,,0.12,Wunderground v.1.15,2013-01-28 07:18:00,
2013-01-28 02:23:00,35.8,35.8,29.89,ENE,75,2.0,2.0,100,0.00,,,0.12,Wunderground v.1.15,2013-01-28 07:23:00,
2013-01-28 02:29:00,35.8,35.8,29.89,East,85,2.0,5.0,100,0.00,,,0.13,Wunderground v.1.15,2013-01-28 07:29:00,
2013-01-28 02:34:00,35.9,35.9,29.88,East,79,2.0,3.0,100,0.00,,,0.13,Wunderground v.1.15,2013-01-28 07:34:00,
2013-01-28 02:39:00,35.9,35.9,29.88,ENE,78,2.0,3.0,100,0.04,,,0.13,Wunderground v.1.15,2013-01-28 07:39:00,
2013-01-28 02:45:00,36.2,36.2,29.87,East,99,2.0,3.0,100,0.04,,,0.14,Wunderground v.1.15,2013-01-28 07:45:00,
2013-01-28 02:50:00,36.3,36.3,29.87,East,86,1.0,1.0,100,0.04,,,0.14,Wunderground v.1.15,2013-01-28 07:50:00,
2013-01-28 02:56:00,36.3,36.3,29.87,East,83,1.0,2.0,100,0.04,,,0.14,Wunderground v.1.15,2013-01-28 07:56:00,
2013-01-28 03:01:00,36.3,36.3,29.87,East,82,1.0,12.0,100,0.00,,,0.15,Wunderground v.1.15,2013-01-28 08:01:00,
2013-01-28 03:07:00,36.3,36.3,29.87,East,90,1.0,12.0,100,0.00,,,0.15,Wunderground v.1.15,2013-01-28 08:07:00,
2013-01-28 03:12:00,36.3,36.3,29.87,East,90,1.0,2.0,100,0.04,,,0.16,Wunderground v.1.15,2013-01-28 08:12:00,
2013-01-28 03:18:00,36.8,36.8,29.86,East,86,1.0,2.0,100,0.04,,,0.16,Wunderground v.1.15,2013-01-28 08:18:00,
2013-01-28 03:23:00,37.0,37.0,29.86,East,90,1.0,2.0,100,0.04,,,0.16,Wunderground v.1.15,2013-01-28 08:23:00,
2013-01-28 03:29:00,37.5,37.5,29.86,East,89,1.0,2.0,100,0.04,,,0.16,Wunderground v.1.15,2013-01-28 08:29:00,
2013-01-28 03:35:00,37.6,37.6,29.86,East,99,1.0,2.0,100,0.04,,,0.17,Wunderground v.1.15,2013-01-28 08:35:00,
2013-01-28 03:40:00,37.5,37.5,29.86,East,99,0.0,2.0,100,0.04,,,0.17,Wunderground v.1.15,2013-01-28 08:40:00,
2013-01-28 03:46:00,37.5,37.5,29.85,East,99,2.0,2.0,100,0.04,,,0.17,Wunderground v.1.15,2013-01-28 08:46:00,
2013-01-28 03:51:00,-999.9,-99.9,29.85,North,32767,-999.0,0.0,255,-99.99,,,0.17,Wunderground v.1.15,2013-01-28 08:51:00,
2013-01-28 03:56:00,-999.9,-99.9,29.85,North,32767,-999.0,0.0,255,-99.99,,,0.17,Wunderground v.1.15,2013-01-28 08:56:00,
2013-01-28 04:02:00,-999.9,-99.9,29.84,North,32767,-999.0,7.0,255,-99.99,,,0.17,Wunderground v.1.15,2013-01-28 09:02:00,
2013-01-28 04:07:00,-999.9,-99.9,29.84,North,32767,-999.0,7.0,255,-99.99,,,0.17,Wunderground v.1.15,2013-01-28 09:07:00,
2013-01-28 04:13:00,-999.9,-99.9,29.84,North,32767,-999.0,0.0,255,-99.99,,,0.17,Wunderground v.1.15,2013-01-28 09:13:00,
2013-01-28 04:18:00,-999.9,-99.9,29.84,North,32767,-999.0,0.0,255,-99.99,,,0.17,Wunderground v.1.15,2013-01-28 09:18:00,
2013-01-28 04:24:00,-999.9,-99.9,29.84,North,32767,-999.0,0.0,255,-99.99,,,0.17,Wunderground v.1.15,2013-01-28 09:24:00,
2013-01-28 04:29:00,-999.9,-99.9,29.84,North,32767,-999.0,0.0,255,-99.99,,,0.17,Wunderground v.1.15,2013-01-28 09:29:00,
2013-01-28 04:35:00,-999.9,-99.9,29.84,North,32767,-999.0,0.0,255,-99.99,,,0.17,Wunderground v.1.15,2013-01-28 09:35:00,
2013-01-28 04:41:00,-999.9,-99.9,29.84,North,32767,-999.0,0.0,255,-99.99,,,0.17,Wunderground v.1.15,2013-01-28 09:41:00,
2013-01-28 04:46:00,-999.9,-99.9,29.83,North,32767,-999.0,0.0,255,-99.99,,,0.17,Wunderground v.1.15,2013-01-28 09:46:00,
2013-01-28 04:52:00,-999.9,-99.9,29.83,North,32767,-999.0,0.0,255,-99.99,,,0.17,Wunderground v.1.15,2013-01-28 09:52:00,
2013-01-28 04:57:00,-999.9,-99.9,29.83,North,32767,-999.0,0.0,255,-99.99,,,0.17,Wunderground v.1.15,2013-01-28 09:57:00,
2013-01-28 05:03:00,-999.9,-99.9,29.82,North,32767,-999.0,2.0,255,-99.99,,,0.17,Wunderground v.1.15,2013-01-28 10:03:00,
2013-01-28 05:09:00,-999.9,-99.9,29.82,North,32767,-999.0,2.0,255,-99.99,,,0.17,Wunderground v.1.15,2013-01-28 10:09:00,
2013-01-28 05:15:00,-999.9,-99.9,29.81,North,32767,-999.0,0.0,255,-99.99,,,0.17,Wunderground v.1.15,2013-01-28 10:15:00,
2013-01-28 05:20:00,-999.9,-99.9,29.81,North,32767,-999.0,0.0,255,-99.99,,,0.17,Wunderground v.1.15,2013-01-28 10:20:00,
2013-01-28 05:26:00,-999.9,-99.9,29.81,North,32767,-999.0,0.0,255,-99.99,,,0.17,Wunderground v.1.15,2013-01-28 10:26:00,
2013-01-28 05:31:00,-999.9,-99.9,29.81,North,32767,-999.0,0.0,255,-99.99,,,0.17,Wunderground v.1.15,2013-01-28 10:31:00,
2013-01-28 05:36:00,-999.9,-99.9,29.81,North,32767,-999.0,0.0,255,-99.99,,,0.17,Wunderground v.1.15,2013-01-28 10:36:00,
2013-01-28 05:42:00,-999.9,-99.9,29.81,North,32767,-999.0,0.0,255,-99.99,,,0.17,Wunderground v.1.15,2013-01-28 10:42:00,
2013-01-28 05:47:00,-999.9,-99.9,29.81,North,32767,-999.0,0.0,255,-99.99,,,0.17,Wunderground v.1.15,2013-01-28 10:47:00,
2013-01-28 05:53:00,-999.9,-99.9,29.81,North,32767,-999.0,0.0,255,-99.99,,,0.17,Wunderground v.1.15,2013-01-28 10:53:00,
2013-01-28 05:58:00,-999.9,-99.9,29.81,North,32767,-999.0,0.0,255,-99.99,,,0.17,Wunderground v.1.15,2013-01-28 10:58:00,
2013-01-28 06:03:00,-999.9,-99.9,29.80,North,32767,-999.0,0.0,255,-99.99,,,0.17,Wunderground v.1.15,2013-01-28 11:03:00,
2013-01-28 06:09:00,-999.9,-99.9,29.80,North,32767,-999.0,0.0,255,-99.99,,,0.17,Wunderground v.1.15,2013-01-28 11:09:00,
2013-01-28 06:15:00,-999.9,-99.9,29.80,North,32767,-999.0,0.0,255,-99.99,,,0.17,Wunderground v.1.15,2013-01-28 11:15:00,
2013-01-28 06:20:00,-999.9,-99.9,29.80,North,32767,-999.0,0.0,255,-99.99,,,0.17,Wunderground v.1.15,2013-01-28 11:20:00,
2013-01-28 06:25:00,-999.9,-99.9,29.80,North,32767,-999.0,0.0,255,-99.99,,,0.17,Wunderground v.1.15,2013-01-28 11:25:00,
2013-01-28 06:31:00,-999.9,-99.9,29.80,North,32767,-999.0,0.0,255,-99.99,,,0.17,Wunderground v.1.15,2013-01-28 11:31:00,
2013-01-28 06:36:00,-999.9,-99.9,29.80,North,32767,-999.0,0.0,255,-99.99,,,0.17,Wunderground v.1.15,2013-01-28 11:36:00,
2013-01-28 06:41:00,-999.9,-99.9,29.80,North,32767,-999.0,0.0,255,-99.99,,,0.17,Wunderground v.1.15,2013-01-28 11:41:00,
2013-01-28 06:47:00,-999.9,-99.9,29.80,North,32767,-999.0,0.0,255,-99.99,,,0.17,Wunderground v.1.15,2013-01-28 11:47:00,
2013-01-28 06:52:00,-999.9,-99.9,29.80,North,32767,-999.0,0.0,255,-99.99,,,0.17,Wunderground v.1.15,2013-01-28 11:52:00,
2013-01-28 06:58:00,-999.9,-99.9,29.80,North,32767,-999.0,0.0,255,-99.99,,,0.17,Wunderground v.1.15,2013-01-28 11:58:00,
2013-01-28 07:03:00,-999.9,-99.9,29.79,North,32767,-999.0,0.0,255,-99.99,,,0.17,Wunderground v.1.15,2013-01-28 12:03:00,
2013-01-28 07:09:00,-999.9,-99.9,29.79,North,32767,-999.0,0.0,255,-99.99,,,0.17,Wunderground v.1.15,2013-01-28 12:09:00,
2013-01-28 07:14:00,-999.9,-99.9,29.79,North,32767,-999.0,0.0,255,-99.99,,,0.17,Wunderground v.1.15,2013-01-28 12:14:00,
2013-01-28 07:19:00,-999.9,-99.9,29.79,North,32767,-999.0,0.0,255,-99.99,,,0.17,Wunderground v.1.15,2013-01-28 12:19:00,
2013-01-28 07:24:00,-999.9,-99.9,29.79,North,32767,-999.0,0.0,255,-99.99,,,0.17,Wunderground v.1.15,2013-01-28 12:24:00,
2013-01-28 07:29:00,-999.9,-99.9,29.79,North,32767,-999.0,0.0,255,-99.99,,,0.17,Wunderground v.1.15,2013-01-28 12:29:00,
2013-01-28 07:34:00,-999.9,-99.9,29.79,North,32767,-999.0,0.0,255,-99.99,,,0.17,Wunderground v.1.15,2013-01-28 12:34:00,
2013-01-28 07:40:00,-999.9,-99.9,29.79,North,32767,-999.0,0.0,255,-99.99,,,0.17,Wunderground v.1.15,2013-01-28 12:40:00,
2013-01-28 07:45:00,-999.9,-99.9,29.80,North,32767,-999.0,0.0,255,-99.99,,,0.17,Wunderground v.1.15,2013-01-28 12:45:00,
2013-01-28 07:50:00,-999.9,-99.9,29.80,North,32767,-999.0,0.0,255,-99.99,,,0.17,Wunderground v.1.15,2013-01-28 12:50:00,
2013-01-28 07:56:00,-999.9,-99.9,29.80,North,32767,-999.0,0.0,255,-99.99,,,0.17,Wunderground v.1.15,2013-01-28 12:56:00,
2013-01-28 08:01:00,-999.9,-99.9,29.80,North,32767,-999.0,0.0,255,-99.99,,,0.17,Wunderground v.1.15,2013-01-28 13:01:00,
2013-01-28 08:06:00,-999.9,-99.9,29.80,North,32767,-999.0,0.0,255,-99.99,,,0.17,Wunderground v.1.15,2013-01-28 13:06:00,
2013-01-28 08:12:00,-999.9,-99.9,29.80,North,32767,-999.0,0.0,255,-99.99,,,0.17,Wunderground v.1.15,2013-01-28 13:12:00,
2013-01-28 08:17:00,-999.9,-99.9,29.81,North,32767,-999.0,0.0,255,-99.99,,,0.17,Wunderground v.1.15,2013-01-28 13:17:00,
2013-01-28 08:22:00,-999.9,-99.9,29.81,North,32767,-999.0,0.0,255,-99.99,,,0.17,Wunderground v.1.15,2013-01-28 13:22:00,
2013-01-28 08:28:00,-999.9,-99.9,29.81,North,32767,-999.0,0.0,255,-99.99,,,0.17,Wunderground v.1.15,2013-01-28 13:28:00,
2013-01-28 08:34:00,-999.9,-99.9,29.81,North,32767,-999.0,0.0,255,-99.99,,,0.17,Wunderground v.1.15,2013-01-28 13:34:00,
2013-01-28 08:39:00,-999.9,-99.9,29.81,North,32767,-999.0,0.0,255,-99.99,,,0.17,Wunderground v.1.15,2013-01-28 13:39:00,
2013-01-28 08:44:00,-999.9,-99.9,29.81,North,32767,-999.0,0.0,255,-99.99,,,0.17,Wunderground v.1.15,2013-01-28 13:44:00,
2013-01-28 08:49:00,-999.9,-99.9,29.81,North,32767,-999.0,0.0,255,-99.99,,,0.17,Wunderground v.1.15,2013-01-28 13:49:00,
2013-01-28 08:55:00,-999.9,-99.9,29.81,North,32767,-999.0,0.0,255,-99.99,,,0.17,Wunderground v.1.15,2013-01-28 13:55:00,
2013-01-28 09:00:00,-999.9,-99.9,29.82,North,32767,-999.0,0.0,255,-99.99,,,0.17,Wunderground v.1.15,2013-01-28 14:00:00,
2013-01-28 09:05:00,-999.9,-99.9,29.82,North,32767,-999.0,0.0,255,-99.99,,,0.17,Wunderground v.1.15,2013-01-28 14:05:00,
2013-01-28 09:11:00,-999.9,-99.9,29.82,North,32767,-999.0,0.0,255,-99.99,,,0.17,Wunderground v.1.15,2013-01-28 14:11:00,
2013-01-28 09:16:00,-999.9,-99.9,29.82,North,32767,-999.0,0.0,255,-99.99,,,0.17,Wunderground v.1.15,2013-01-28 14:16:00,
2013-01-28 09:22:00,-999.9,-99.9,29.82,North,32767,-999.0,0.0,255,-99.99,,,0.17,Wunderground v.1.15,2013-01-28 14:22:00,
2013-01-28 09:27:00,-999.9,-99.9,29.82,North,32767,-999.0,0.0,255,-99.99,,,0.17,Wunderground v.1.15,2013-01-28 14:27:00,
2013-01-28 09:32:00,-999.9,-99.9,29.82,North,32767,-999.0,0.0,255,-99.99,,,0.17,Wunderground v.1.15,2013-01-28 14:32:00,
2013-01-28 09:37:00,-999.9,-99.9,29.82,North,32767,-999.0,0.0,255,-99.99,,,0.17,Wunderground v.1.15,2013-01-28 14:37:00,
2013-01-28 09:43:00,-999.9,-99.9,29.82,North,32767,-999.0,0.0,255,-99.99,,,0.17,Wunderground v.1.15,2013-01-28 14:43:00,
2013-01-28 09:49:00,-999.9,-99.9,29.82,North,32767,-999.0,0.0,255,-99.99,,,0.17,Wunderground v.1.15,2013-01-28 14:49:00,
2013-01-28 09:54:00,-999.9,-99.9,29.82,North,32767,-999.0,0.0,255,-99.99,,,0.17,Wunderground v.1.15,2013-01-28 14:54:00,
2013-01-28 09:59:00,-999.9,-99.9,29.82,North,32767,-999.0,0.0,255,-99.99,,,0.17,Wunderground v.1.15,2013-01-28 14:59:00,
2013-01-28 10:04:00,-999.9,-99.9,29.82,North,32767,-999.0,0.0,255,-99.99,,,0.17,Wunderground v.1.15,2013-01-28 15:04:00,
2013-01-28 10:10:00,-999.9,-99.9,29.82,North,32767,-999.0,0.0,255,-99.99,,,0.17,Wunderground v.1.15,2013-01-28 15:10:00,
2013-01-28 10:16:00,-999.9,-99.9,29.83,North,32767,-999.0,0.0,255,-99.99,,,0.17,Wunderground v.1.15,2013-01-28 15:16:00,
2013-01-28 10:21:00,-999.9,-99.9,29.83,North,32767,-999.0,0.0,255,-99.99,,,0.17,Wunderground v.1.15,2013-01-28 15:21:00,
2013-01-28 10:26:00,-999.9,-99.9,29.83,North,32767,-999.0,0.0,255,-99.99,,,0.17,Wunderground v.1.15,2013-01-28 15:26:00,
2013-01-28 10:31:00,-999.9,-99.9,29.83,North,32767,-999.0,0.0,255,-99.99,,,0.17,Wunderground v.1.15,2013-01-28 15:31:00,
2013-01-28 10:37:00,-999.9,-99.9,29.83,North,32767,-999.0,0.0,255,-99.99,,,0.17,Wunderground v.1.15,2013-01-28 15:37:00,
2013-01-28 10:42:00,-999.9,-99.9,29.83,North,32767,-999.0,0.0,255,-99.99,,,0.17,Wunderground v.1.15,2013-01-28 15:42:00,
2013-01-28 10:47:00,-999.9,-99.9,29.83,North,32767,-999.0,0.0,255,-99.99,,,0.17,Wunderground v.1.15,2013-01-28 15:47:00,
2013-01-28 10:53:00,-999.9,-99.9,29.83,North,32767,-999.0,0.0,255,-99.99,,,0.17,Wunderground v.1.15,2013-01-28 15:53:00,
2013-01-28 10:59:00,-999.9,-99.9,29.83,North,32767,-999.0,0.0,255,-99.99,,,0.17,Wunderground v.1.15,2013-01-28 15:59:00,
2013-01-28 11:04:00,-999.9,-99.9,29.84,North,32767,-999.0,0.0,255,-99.99,,,0.17,Wunderground v.1.15,2013-01-28 16:04:00,
2013-01-28 11:09:00,-999.9,-99.9,29.84,North,32767,-999.0,0.0,255,-99.99,,,0.17,Wunderground v.1.15,2013-01-28 16:09:00,
2013-01-28 11:14:00,-999.9,-99.9,29.84,North,32767,-999.0,0.0,255,-99.99,,,0.17,Wunderground v.1.15,2013-01-28 16:14:00,
2013-01-28 11:20:00,-999.9,-99.9,29.85,North,32767,-999.0,0.0,255,-99.99,,,0.17,Wunderground v.1.15,2013-01-28 16:20:00,
2013-01-28 11:25:00,-999.9,-99.9,29.85,North,32767,-999.0,0.0,255,-99.99,,,0.17,Wunderground v.1.15,2013-01-28 16:25:00,
2013-01-28 11:30:00,-999.9,-99.9,29.85,North,32767,-999.0,0.0,255,-99.99,,,0.17,Wunderground v.1.15,2013-01-28 16:30:00,
2013-01-28 11:36:00,-999.9,-99.9,29.85,North,32767,-999.0,0.0,255,-99.99,,,0.17,Wunderground v.1.15,2013-01-28 16:36:00,
2013-01-28 11:41:00,-999.9,-99.9,29.85,North,32767,-999.0,0.0,255,-99.99,,,0.17,Wunderground v.1.15,2013-01-28 16:41:00,
2013-01-28 11:46:00,-999.9,-99.9,29.85,North,32767,-999.0,0.0,255,-99.99,,,0.17,Wunderground v.1.15,2013-01-28 16:46:00,
2013-01-28 11:51:00,-999.9,-99.9,29.85,North,32767,-999.0,0.0,255,-99.99,,,0.17,Wunderground v.1.15,2013-01-28 16:51:00,
2013-01-28 11:57:00,-999.9,-99.9,29.85,North,32767,-999.0,0.0,255,-99.99,,,0.17,Wunderground v.1.15,2013-01-28 16:57:00,
2013-01-28 12:02:00,-999.9,-99.9,29.86,North,32767,-999.0,0.0,255,-99.99,,,0.17,Wunderground v.1.15,2013-01-28 17:02:00,
2013-01-28 12:07:00,-999.9,-99.9,29.86,North,32767,-999.0,0.0,255,-99.99,,,0.17,Wunderground v.1.15,2013-01-28 17:07:00,
2013-01-28 12:14:00,-999.9,-99.9,29.86,North,32767,-999.0,0.0,255,-99.99,,,0.17,Wunderground v.1.15,2013-01-28 17:14:00,
2013-01-28 12:19:00,-999.9,-99.9,29.86,North,32767,-999.0,0.0,255,-99.99,,,0.17,Wunderground v.1.15,2013-01-28 17:19:00,
2013-01-28 12:24:00,-999.9,-99.9,29.86,North,32767,-999.0,0.0,255,-99.99,,,0.17,Wunderground v.1.15,2013-01-28 17:24:00,
2013-01-28 12:29:00,-999.9,-99.9,29.86,North,32767,-999.0,0.0,255,-99.99,,,0.17,Wunderground v.1.15,2013-01-28 17:29:00,
2013-01-28 12:34:00,-999.9,-99.9,29.86,North,32767,-999.0,0.0,255,-99.99,,,0.17,Wunderground v.1.15,2013-01-28 17:34:00,
2013-01-28 12:40:00,-999.9,-99.9,29.86,North,32767,-999.0,0.0,255,-99.99,,,0.17,Wunderground v.1.15,2013-01-28 17:40:00,
2013-01-28 12:45:00,-999.9,-99.9,29.87,North,32767,-999.0,0.0,255,-99.99,,,0.17,Wunderground v.1.15,2013-01-28 17:45:00,
2013-01-28 12:51:00,-999.9,-99.9,29.87,North,32767,-999.0,0.0,255,-99.99,,,0.17,Wunderground v.1.15,2013-01-28 17:51:00,
2013-01-28 12:56:00,-999.9,-99.9,29.87,North,32767,-999.0,0.0,255,-99.99,,,0.17,Wunderground v.1.15,2013-01-28 17:56:00,
2013-01-28 13:01:00,-999.9,-99.9,29.86,North,32767,-999.0,0.0,255,-99.99,,,0.17,Wunderground v.1.15,2013-01-28 18:01:00,
2013-01-28 13:07:00,-999.9,-99.9,29.86,North,32767,-999.0,0.0,255,-99.99,,,0.17,Wunderground v.1.15,2013-01-28 18:07:00,
2013-01-28 13:12:00,-999.9,-99.9,29.86,North,32767,-999.0,0.0,255,-99.99,,,0.17,Wunderground v.1.15,2013-01-28 18:12:00,
2013-01-28 13:17:00,-999.9,-99.9,29.86,North,32767,-999.0,0.0,255,-99.99,,,0.17,Wunderground v.1.15,2013-01-28 18:17:00,
2013-01-28 13:24:00,-999.9,-99.9,29.86,North,32767,-999.0,0.0,255,-99.99,,,0.17,Wunderground v.1.15,2013-01-28 18:24:00,
2013-01-28 13:29:00,-999.9,-99.9,29.86,North,32767,-999.0,0.0,255,-99.99,,,0.17,Wunderground v.1.15,2013-01-28 18:29:00,
2013-01-28 13:34:00,-999.9,-99.9,29.87,North,32767,-999.0,0.0,255,-99.99,,,0.17,Wunderground v.1.15,2013-01-28 18:34:00,
2013-01-28 13:39:00,-999.9,-99.9,29.87,North,32767,-999.0,0.0,255,-99.99,,,0.17,Wunderground v.1.15,2013-01-28 18:39:00,
2013-01-28 13:44:00,-999.9,-99.9,29.87,North,32767,-999.0,0.0,255,-99.99,,,0.17,Wunderground v.1.15,2013-01-28 18:44:00,
2013-01-28 13:50:00,-999.9,-99.9,29.87,North,32767,-999.0,0.0,255,-99.99,,,0.17,Wunderground v.1.15,2013-01-28 18:50:00,
2013-01-28 13:55:00,-999.9,-99.9,29.87,North,32767,-999.0,0.0,255,-99.99,,,0.17,Wunderground v.1.15,2013-01-28 18:55:00,
2013-01-28 14:00:00,-999.9,-99.9,29.87,North,32767,-999.0,0.0,255,-99.99,,,0.17,Wunderground v.1.15,2013-01-28 19:00:00,
2013-01-28 14:06:00,-999.9,-99.9,29.87,North,32767,-999.0,0.0,255,-99.99,,,0.17,Wunderground v.1.15,2013-01-28 19:06:00,
2013-01-28 14:11:00,-999.9,-99.9,29.87,North,32767,-999.0,0.0,255,-99.99,,,0.17,Wunderground v.1.15,2013-01-28 19:11:00,
2013-01-28 14:16:00,-999.9,-99.9,29.87,North,32767,-999.0,0.0,255,-99.99,,,0.17,Wunderground v.1.15,2013-01-28 19:16:00,
2013-01-28 14:23:00,-999.9,-99.9,29.87,North,32767,-999.0,0.0,255,-99.99,,,0.17,Wunderground v.1.15,2013-01-28 19:23:00,
2013-01-28 14:29:00,-999.9,-99.9,29.87,North,32767,-999.0,0.0,255,-99.99,,,0.17,Wunderground v.1.15,2013-01-28 19:29:00,
2013-01-28 14:34:00,-999.9,-99.9,29.87,North,32767,-999.0,0.0,255,-99.99,,,0.17,Wunderground v.1.15,2013-01-28 19:34:00,
2013-01-28 14:39:00,-999.9,-99.9,29.87,North,32767,-999.0,0.0,255,-99.99,,,0.17,Wunderground v.1.15,2013-01-28 19:39:00,
2013-01-28 14:44:00,-999.9,-99.9,29.87,North,32767,-999.0,0.0,255,-99.99,,,0.17,Wunderground v.1.15,2013-01-28 19:44:00,
2013-01-28 14:49:00,-999.9,-99.9,29.87,North,32767,-999.0,0.0,255,-99.99,,,0.17,Wunderground v.1.15,2013-01-28 19:49:00,
2013-01-28 14:54:00,-999.9,-99.9,29.87,North,32767,-999.0,0.0,255,-99.99,,,0.17,Wunderground v.1.15,2013-01-28 19:54:00,
2013-01-28 15:00:00,-999.9,-99.9,29.87,North,32767,-999.0,0.0,255,-99.99,,,0.17,Wunderground v.1.15,2013-01-28 20:00:00,
2013-01-28 15:06:00,-999.9,-99.9,29.87,North,32767,-999.0,0.0,255,-99.99,,,0.17,Wunderground v.1.15,2013-01-28 20:06:00,
2013-01-28 15:12:00,-999.9,-99.9,29.87,North,32767,-999.0,0.0,255,-99.99,,,0.17,Wunderground v.1.15,2013-01-28 20:12:00,
2013-01-28 15:17:00,-999.9,-99.9,29.84,North,32767,-999.0,0.0,255,-99.99,,,0.17,Wunderground v.1.15,2013-01-28 20:17:00,
2013-01-28 15:23:00,-999.9,-99.9,29.84,North,32767,-999.0,0.0,255,-99.99,,,0.17,Wunderground v.1.15,2013-01-28 20:23:00,
2013-01-28 15:28:00,-999.9,-99.9,29.84,North,32767,-999.0,0.0,255,-99.99,,,0.17,Wunderground v.1.15,2013-01-28 20:28:00,
2013-01-28 15:34:00,-999.9,-99.9,29.84,North,32767,-999.0,0.0,255,-99.99,,,0.17,Wunderground v.1.15,2013-01-28 20:34:00,
2013-01-28 15:39:00,-999.9,-99.9,29.84,North,32767,-999.0,0.0,255,-99.99,,,0.17,Wunderground v.1.15,2013-01-28 20:39:00,
2013-01-28 15:44:00,-999.9,-99.9,29.84,North,32767,-999.0,0.0,255,-99.99,,,0.17,Wunderground v.1.15,2013-01-28 20:44:00,
2013-01-28 15:49:00,-999.9,-99.9,29.85,North,32767,-999.0,0.0,255,-99.99,,,0.17,Wunderground v.1.15,2013-01-28 20:49:00,
2013-01-28 15:55:00,-999.9,-99.9,29.85,North,32767,-999.0,0.0,255,-99.99,,,0.17,Wunderground v.1.15,2013-01-28 20:55:00,
2013-01-28 16:00:00,-999.9,-99.9,29.86,North,32767,-999.0,0.0,255,-99.99,,,0.17,Wunderground v.1.15,2013-01-28 21:00:00,
2013-01-28 16:05:00,-999.9,-99.9,29.86,North,32767,-999.0,0.0,255,-99.99,,,0.17,Wunderground v.1.15,2013-01-28 21:05:00,
2013-01-28 16:11:00,-999.9,-99.9,29.86,North,32767,-999.0,0.0,255,-99.99,,,0.17,Wunderground v.1.15,2013-01-28 21:11:00,
2013-01-28 16:17:00,-999.9,-99.9,29.87,North,32767,-999.0,0.0,255,-99.99,,,0.17,Wunderground v.1.15,2013-01-28 21:17:00,
2013-01-28 16:22:00,-999.9,-99.9,29.87,North,32767,-999.0,0.0,255,-99.99,,,0.17,Wunderground v.1.15,2013-01-28 21:22:00,
2013-01-28 16:28:00,-999.9,-99.9,29.87,North,32767,-999.0,0.0,255,-99.99,,,0.17,Wunderground v.1.15,2013-01-28 21:28:00,
2013-01-28 16:33:00,-999.9,-99.9,29.88,North,32767,-999.0,0.0,255,-99.99,,,0.17,Wunderground v.1.15,2013-01-28 21:33:00,
2013-01-28 16:38:00,-999.9,-99.9,29.88,North,32767,-999.0,0.0,255,-99.99,,,0.17,Wunderground v.1.15,2013-01-28 21:38:00,
2013-01-28 16:43:00,-999.9,-99.9,29.88,North,32767,-999.0,0.0,255,-99.99,,,0.17,Wunderground v.1.15,2013-01-28 21:43:00,
2013-01-28 16:49:00,-999.9,-99.9,29.88,North,32767,-999.0,0.0,255,-99.99,,,0.17,Wunderground v.1.15,2013-01-28 21:49:00,
2013-01-28 16:54:00,-999.9,-99.9,29.88,North,32767,-999.0,0.0,255,-99.99,,,0.17,Wunderground v.1.15,2013-01-28 21:54:00,
2013-01-28 17:00:00,-999.9,-99.9,29.88,North,32767,-999.0,0.0,255,-99.99,,,0.17,Wunderground v.1.15,2013-01-28 22:00:00,
2013-01-28 17:05:00,-999.9,-99.9,29.88,North,32767,-999.0,0.0,255,-99.99,,,0.17,Wunderground v.1.15,2013-01-28 22:05:00,
2013-01-28 17:11:00,-999.9,-99.9,29.88,North,32767,-999.0,0.0,255,-99.99,,,0.17,Wunderground v.1.15,2013-01-28 22:11:00,
2013-01-28 17:16:00,-999.9,-99.9,29.88,North,32767,-999.0,0.0,255,-99.99,,,0.17,Wunderground v.1.15,2013-01-28 22:16:00,
2013-01-28 17:22:00,-999.9,-99.9,29.88,North,32767,-999.0,0.0,255,-99.99,,,0.17,Wunderground v.1.15,2013-01-28 22:22:00,
2013-01-28 17:27:00,-999.9,-99.9,29.88,North,32767,-999.0,0.0,255,-99.99,,,0.17,Wunderground v.1.15,2013-01-28 22:27:00,
2013-01-28 17:32:00,-999.9,-99.9,29.89,North,32767,-999.0,0.0,255,-99.99,,,0.17,Wunderground v.1.15,2013-01-28 22:32:00,
2013-01-28 17:38:00,-999.9,-99.9,29.89,North,32767,-999.0,0.0,255,-99.99,,,0.17,Wunderground v.1.15,2013-01-28 22:38:00,
2013-01-28 17:43:00,-999.9,-99.9,29.89,North,32767,-999.0,0.0,255,-99.99,,,0.17,Wunderground v.1.15,2013-01-28 22:43:00,
2013-01-28 17:49:00,-999.9,-99.9,29.88,North,32767,-999.0,0.0,255,-99.99,,,0.17,Wunderground v.1.15,2013-01-28 22:49:00,
2013-01-28 17:54:00,-999.9,-99.9,29.88,North,32767,-999.0,0.0,255,-99.99,,,0.17,Wunderground v.1.15,2013-01-28 22:54:00,
2013-01-28 18:00:00,-999.9,-99.9,29.88,North,32767,-999.0,0.0,255,-99.99,,,0.17,Wunderground v.1.15,2013-01-28 23:00:00,
2013-01-28 18:05:00,-999.9,-99.9,29.88,North,32767,-999.0,0.0,255,-99.99,,,0.17,Wunderground v.1.15,2013-01-28 23:05:00,
2013-01-28 18:11:00,-999.9,-99.9,29.88,North,32767,-999.0,0.0,255,-99.99,,,0.17,Wunderground v.1.15,2013-01-28 23:11:00,
2013-01-28 18:16:00,-999.9,-99.9,29.89,North,32767,-999.0,0.0,255,-99.99,,,0.17,Wunderground v.1.15,2013-01-28 23:16:00,
2013-01-28 18:21:00,-999.9,-99.9,29.89,North,32767,-999.0,0.0,255,-99.99,,,0.17,Wunderground v.1.15,2013-01-28 23:21:00,
2013-01-28 18:27:00,-999.9,-99.9,29.89,North,32767,-999.0,0.0,255,-99.99,,,0.17,Wunderground v.1.15,2013-01-28 23:27:00,
2013-01-28 18:32:00,-999.9,-99.9,29.90,North,32767,-999.0,0.0,255,-99.99,,,0.17,Wunderground v.1.15,2013-01-28 23:32:00,
2013-01-28 18:37:00,37.5,37.5,29.90,WNW,288,0.0,0.0,100,0.00,,,0.17,Wunderground v.1.15,2013-01-28 23:37:00,
2013-01-28 18:43:00,37.3,37.3,29.90,WNW,288,0.0,0.0,100,0.00,,,0.17,Wunderground v.1.15,2013-01-28 23:43:00,
2013-01-28 18:48:00,37.3,37.3,29.93,WNW,288,0.0,0.0,100,0.00,,,0.17,Wunderground v.1.15,2013-01-28 23:48:00,
2013-01-28 18:54:00,37.5,37.5,29.93,WNW,288,0.0,0.0,100,0.00,,,0.17,Wunderground v.1.15,2013-01-28 23:54:00,
2013-01-28 18:59:00,37.2,37.2,29.93,WNW,288,0.0,0.0,100,0.00,,,0.17,Wunderground v.1.15,2013-01-28 23:59:00,
2013-01-28 19:05:00,37.0,37.0,29.94,WNW,288,0.0,0.0,100,0.00,,,0.17,Wunderground v.1.15,2013-01-29 00:05:00,
2013-01-28 19:11:00,37.0,37.0,29.94,WNW,288,0.0,0.0,100,0.00,,,0.17,Wunderground v.1.15,2013-01-29 00:11:00,
2013-01-28 19:16:00,37.0,37.0,29.94,WNW,288,0.0,0.0,100,0.00,,,0.17,Wunderground v.1.15,2013-01-29 00:16:00,
2013-01-28 19:22:00,36.9,36.9,29.94,WNW,288,0.0,0.0,100,0.00,,,0.17,Wunderground v.1.15,2013-01-29 00:22:00,
2013-01-28 19:27:00,36.9,36.9,29.94,WNW,288,0.0,0.0,100,0.00,,,0.17,Wunderground v.1.15,2013-01-29 00:27:00,
2013-01-28 19:33:00,36.8,36.8,29.94,WNW,288,0.0,0.0,100,0.00,,,0.17,Wunderground v.1.15,2013-01-29 00:33:00,
2013-01-28 19:38:00,36.6,36.6,29.94,WNW,288,0.0,0.0,100,0.00,,,0.17,Wunderground v.1.15,2013-01-29 00:38:00,
2013-01-28 19:44:00,36.5,36.5,29.94,WNW,288,0.0,0.0,100,0.00,,,0.17,Wunderground v.1.15,2013-01-29 00:44:00,
2013-01-28 19:49:00,36.5,36.5,29.94,WNW,288,0.0,0.0,100,0.00,,,0.17,Wunderground v.1.15,2013-01-29 00:49:00,
2013-01-28 19:55:00,36.3,36.3,29.94,WNW,288,0.0,0.0,100,0.00,,,0.17,Wunderground v.1.15,2013-01-29 00:55:00,
2013-01-28 20:00:00,36.3,36.3,29.94,WNW,288,0.0,0.0,100,0.00,,,0.17,Wunderground v.1.15,2013-01-29 01:00:00,
2013-01-28 20:05:00,36.5,36.5,29.94,WNW,288,0.0,0.0,100,0.00,,,0.17,Wunderground v.1.15,2013-01-29 01:05:00,
2013-01-28 20:11:00,36.6,36.6,29.94,WNW,288,0.0,0.0,100,0.00,,,0.17,Wunderground v.1.15,2013-01-29 01:11:00,
2013-01-28 20:17:00,36.6,36.6,29.94,WNW,288,0.0,0.0,100,0.00,,,0.17,Wunderground v.1.15,2013-01-29 01:17:00,
2013-01-28 20:22:00,36.6,36.6,29.94,WNW,288,0.0,0.0,100,0.00,,,0.17,Wunderground v.1.15,2013-01-29 01:22:00,
2013-01-28 20:28:00,36.6,36.6,29.94,WNW,288,0.0,0.0,100,0.00,,,0.17,Wunderground v.1.15,2013-01-29 01:28:00,
2013-01-28 20:33:00,36.5,36.5,29.94,WNW,288,0.0,0.0,100,0.00,,,0.17,Wunderground v.1.15,2013-01-29 01:33:00,
2013-01-28 20:39:00,36.5,36.5,29.94,WNW,288,0.0,0.0,100,0.00,,,0.17,Wunderground v.1.15,2013-01-29 01:39:00,
2013-01-28 20:44:00,36.5,36.5,29.94,WNW,288,0.0,0.0,100,0.00,,,0.17,Wunderground v.1.15,2013-01-29 01:44:00,
2013-01-28 20:50:00,36.5,36.5,29.93,WNW,288,0.0,0.0,100,0.00,,,0.17,Wunderground v.1.15,2013-01-29 01:50:00,
2013-01-28 20:55:00,36.3,36.3,29.93,WNW,288,0.0,0.0,100,0.00,,,0.17,Wunderground v.1.15,2013-01-29 01:55:00,
2013-01-28 21:01:00,36.0,36.0,29.93,WNW,288,0.0,0.0,100,0.00,,,0.17,Wunderground v.1.15,2013-01-29 02:01:00,
2013-01-28 21:07:00,36.0,36.0,29.93,WNW,288,0.0,0.0,100,0.00,,,0.17,Wunderground v.1.15,2013-01-29 02:07:00,
2013-01-28 21:12:00,36.0,36.0,29.93,WNW,288,0.0,0.0,100,0.00,,,0.17,Wunderground v.1.15,2013-01-29 02:12:00,
2013-01-28 21:18:00,35.9,35.9,29.93,WNW,288,0.0,0.0,100,0.00,,,0.17,Wunderground v.1.15,2013-01-29 02:18:00,
2013-01-28 21:23:00,36.0,36.0,29.93,WNW,288,0.0,0.0,100,0.00,,,0.17,Wunderground v.1.15,2013-01-29 02:23:00,
2013-01-28 21:28:00,36.0,36.0,29.93,WNW,288,0.0,0.0,100,0.00,,,0.17,Wunderground v.1.15,2013-01-29 02:28:00,
2013-01-28 21:34:00,36.3,36.3,29.93,WNW,288,0.0,0.0,100,0.00,,,0.17,Wunderground v.1.15,2013-01-29 02:34:00,
2013-01-28 21:40:00,36.2,36.2,29.93,WNW,288,0.0,0.0,100,0.00,,,0.17,Wunderground v.1.15,2013-01-29 02:40:00,
2013-01-28 21:45:00,36.3,36.3,29.94,WNW,288,0.0,0.0,100,0.00,,,0.17,Wunderground v.1.15,2013-01-29 02:45:00,
2013-01-28 21:50:00,36.5,36.5,29.94,WNW,288,0.0,0.0,100,0.00,,,0.17,Wunderground v.1.15,2013-01-29 02:50:00,
2013-01-28 21:56:00,36.5,36.5,29.94,WNW,288,0.0,0.0,100,0.00,,,0.17,Wunderground v.1.15,2013-01-29 02:56:00,
2013-01-28 22:01:00,36.5,36.5,29.92,WNW,288,0.0,0.0,100,0.00,,,0.17,Wunderground v.1.15,2013-01-29 03:01:00,
2013-01-28 22:07:00,36.5,36.5,29.92,WNW,288,0.0,1.0,100,0.00,,,0.17,Wunderground v.1.15,2013-01-29 03:07:00,
2013-01-28 22:12:00,36.5,36.5,29.92,WNW,288,0.0,0.0,100,0.00,,,0.17,Wunderground v.1.15,2013-01-29 03:12:00,
2013-01-28 22:18:00,36.5,36.5,29.93,WNW,288,0.0,2.0,100,0.00,,,0.17,Wunderground v.1.15,2013-01-29 03:18:00,
2013-01-28 22:24:00,36.5,36.5,29.93,WNW,288,0.0,0.0,100,0.00,,,0.17,Wunderground v.1.15,2013-01-29 03:24:00,
2013-01-28 22:29:00,36.3,36.3,29.93,WNW,301,1.0,2.0,100,0.00,,,0.17,Wunderground v.1.15,2013-01-29 03:29:00,
2013-01-28 22:35:00,36.5,36.5,29.92,ENE,72,1.0,3.0,100,0.00,,,0.17,Wunderground v.1.15,2013-01-29 03:35:00,
2013-01-28 22:40:00,36.5,36.5,29.92,ENE,69,1.0,1.0,100,0.00,,,0.17,Wunderground v.1.15,2013-01-29 03:40:00,
2013-01-28 22:45:00,36.5,36.5,29.92,ENE,69,0.0,1.0,100,0.00,,,0.17,Wunderground v.1.15,2013-01-29 03:45:00,
2013-01-28 22:50:00,36.5,36.5,29.92,ENE,69,0.0,3.0,100,0.00,,,0.17,Wunderground v.1.15,2013-01-29 03:50:00,
2013-01-28 22:56:00,36.6,36.6,29.92,ENE,61,0.0,3.0,100,0.00,,,0.17,Wunderground v.1.15,2013-01-29 03:56:00,
2013-01-28 23:01:00,36.6,36.6,29.91,ENE,69,1.0,2.0,100,0.00,,,0.17,Wunderground v.1.15,2013-01-29 04:01:00,
2013-01-28 23:06:00,36.6,36.6,29.91,ENE,69,0.0,2.0,100,0.00,,,0.17,Wunderground v.1.15,2013-01-29 04:06:00,
2013-01-28 23:11:00,-999.9,-99.9,29.91,North,32767,-999.0,0.0,255,-99.99,,,0.17,Wunderground v.1.15,2013-01-29 04:11:00,
2013-01-28 23:16:00,-999.9,-99.9,29.88,North,32767,-999.0,0.0,255,-99.99,,,0.17,Wunderground v.1.15,2013-01-29 04:16:00,
2013-01-28 23:22:00,-999.9,-99.9,29.88,North,32767,-999.0,0.0,255,-99.99,,,0.17,Wunderground v.1.15,2013-01-29 04:22:00,
2013-01-28 23:27:00,-999.9,-99.9,29.88,North,32767,-999.0,0.0,255,-99.99,,,0.17,Wunderground v.1.15,2013-01-29 04:27:00,
2013-01-28 23:33:00,-999.9,-99.9,29.87,North,32767,-999.0,0.0,255,-99.99,,,0.17,Wunderground v.1.15,2013-01-29 04:33:00,
2013-01-28 23:39:00,-999.9,-99.9,29.87,North,32767,-999.0,0.0,255,-99.99,,,0.17,Wunderground v.1.15,2013-01-29 04:39:00,
2013-01-28 23:44:00,-999.9,-99.9,29.87,North,32767,-999.0,0.0,255,-99.99,,,0.17,Wunderground v.1.15,2013-01-29 04:44:00,
2013-01-28 23:49:00,-999.9,-99.9,29.86,North,32767,-999.0,0.0,255,-99.99,,,0.17,Wunderground v.1.15,2013-01-29 04:49:00,
2013-01-28 23:54:00,-999.9,-99.9,29.86,North,32767,-999.0,0.0,255,-99.99,,,0.17,Wunderground v.1.15,2013-01-29 04:54:00,